Time;durP1;ratioP1;P1;durP2;ratioP2;P2;SDS_P1;SDS_P2;PMS_P1;PMS_P2;Temp;Humidity;BMP_temperature;BMP_pressure;BME280_temperature;BME280_humidity;BME280_pressure;Samples;Min_cycle;Max_cycle;Signal;HPM_P1;HPM_P2
2021/06/06 00:00:50;;;;;;;2.95;1.52;;;15.60;99.90;;;;;;6214428;23;19997;-78
2021/06/06 00:03:30;;;;;;;4.38;1.75;;;15.70;99.90;;;;;;6214154;23;20012;-78
2021/06/06 00:05:57;;;;;;;;;;;15.70;99.90;;;;;;6213063;23;20342;-78
2021/06/06 00:08:25;;;;;;;3.28;2.17;;;15.70;99.90;;;;;;6214586;23;19904;-78
2021/06/06 00:10:54;;;;;;;3.40;1.85;;;15.60;99.90;;;;;;6214656;23;20050;-78
2021/06/06 00:13:21;;;;;;;2.55;1.77;;;15.60;99.90;;;;;;6214920;23;20003;-78
2021/06/06 00:15:47;;;;;;;4.47;1.80;;;15.60;99.90;;;;;;6214666;23;19992;-78
2021/06/06 00:18:13;;;;;;;5.07;3.10;;;15.70;99.90;;;;;;6214796;23;20377;-78
2021/06/06 00:20:39;;;;;;;3.80;2.05;;;15.60;99.90;;;;;;6214580;23;20047;-78
2021/06/06 00:23:07;;;;;;;7.55;1.80;;;15.40;99.90;;;;;;6213985;23;20450;-78
2021/06/06 00:25:34;;;;;;;6.50;2.03;;;15.30;99.90;;;;;;6212960;23;20000;-78
2021/06/06 00:28:00;;;;;;;3.47;1.73;;;15.30;99.90;;;;;;6214032;23;20020;-78
2021/06/06 00:30:26;;;;;;;5.95;2.33;;;15.30;99.90;;;;;;6214420;23;20004;-78
2021/06/06 00:32:52;;;;;;;1.90;1.70;;;15.40;99.90;;;;;;6214719;23;20001;-78
2021/06/06 00:35:19;;;;;;;2.55;1.45;;;15.40;99.90;;;;;;6214710;23;20096;-78
2021/06/06 00:37:45;;;;;;;5.43;2.22;;;15.50;99.90;;;;;;6214757;23;20024;-78
2021/06/06 00:40:16;;;;;;;1.98;1.77;;;15.50;99.90;;;;;;6212579;23;20004;-78
2021/06/06 00:42:42;;;;;;;2.15;1.40;;;15.50;99.90;;;;;;6214073;23;20431;-78
2021/06/06 00:45:12;;;;;;;4.75;1.80;;;15.50;99.90;;;;;;6214360;23;19993;-78
2021/06/06 00:47:38;;;;;;;2.72;2.00;;;15.60;99.90;;;;;;6214351;23;20000;-78
2021/06/06 00:50:08;;;;;;;4.72;1.63;;;15.70;99.90;;;;;;6214529;23;20008;-78
2021/06/06 00:52:36;;;;;;;1.52;1.42;;;15.70;99.90;;;;;;6214692;23;20208;-78
2021/06/06 00:55:05;;;;;;;4.80;1.92;;;15.70;99.90;;;;;;6213522;23;20315;-78
2021/06/06 00:57:33;;;;;;;7.07;2.27;;;15.70;99.90;;;;;;6214145;23;20004;-78
2021/06/06 01:00:19;;;;;;;5.53;1.98;;;15.70;99.90;;;;;;6214449;23;20386;-78
2021/06/06 01:02:45;;;;;;;6.55;1.92;;;15.60;99.90;;;;;;6214364;23;20095;-78
2021/06/06 01:05:17;;;;;;;3.83;1.50;;;15.60;99.90;;;;;;6214583;23;20308;-78
2021/06/06 01:07:42;;;;;;;2.53;1.80;;;15.60;99.90;;;;;;6214690;23;19996;-78
2021/06/06 01:10:09;;;;;;;7.20;2.17;;;15.60;99.90;;;;;;6214283;23;20453;-78
2021/06/06 01:12:40;;;;;;;7.78;1.60;;;15.60;99.90;;;;;;6214155;23;20011;-78
2021/06/06 01:15:17;;;;;;;2.70;1.73;;;15.60;99.90;;;;;;6214528;23;19997;-78
2021/06/06 01:17:52;;;;;;;5.53;1.60;;;15.50;99.90;;;;;;6214620;23;20047;-78
2021/06/06 01:20:23;;;;;;;6.50;1.90;;;15.40;99.90;;;;;;6214422;23;20067;-78
2021/06/06 01:22:53;;;;;;;3.63;1.95;;;15.50;99.90;;;;;;6213727;23;20008;-78
2021/06/06 01:25:34;;;;;;;2.22;1.80;;;15.60;99.90;;;;;;6214410;23;20000;-78
2021/06/06 01:28:09;;;;;;;7.32;2.00;;;15.60;99.90;;;;;;6213990;23;19992;-78
2021/06/06 01:30:39;;;;;;;4.80;1.88;;;15.60;99.90;;;;;;6214678;23;20000;-78
2021/06/06 01:33:23;;;;;;;6.07;2.00;;;15.60;99.90;;;;;;6214435;23;20031;-78
2021/06/06 01:35:54;;;;;;;4.93;2.88;;;15.60;99.90;;;;;;6214684;23;20035;-78
2021/06/06 01:39:10;;;;;;;9.05;2.10;;;15.60;99.90;;;;;;6214285;23;20443;-78
2021/06/06 01:41:39;;;;;;;4.93;1.98;;;15.50;99.90;;;;;;6189353;23;20035;-78
2021/06/06 01:44:11;;;;;;;5.25;1.70;;;15.50;99.90;;;;;;6216033;23;19997;-78
2021/06/06 01:47:02;;;;;;;6.07;1.98;;;15.40;99.90;;;;;;6216349;23;20435;-78
2021/06/06 01:49:30;;;;;;;4.88;1.77;;;15.40;99.90;;;;;;6216018;23;20003;-78
2021/06/06 01:51:58;;;;;;;5.07;1.58;;;15.30;99.90;;;;;;6215992;23;20043;-78
2021/06/06 01:54:28;;;;;;;6.35;1.80;;;15.40;99.90;;;;;;6215657;23;20381;-78
2021/06/06 01:56:54;;;;;;;9.02;2.03;;;15.40;99.90;;;;;;6215523;23;20324;-78
2021/06/06 01:59:33;;;;;;;4.05;1.70;;;15.40;99.90;;;;;;6215800;23;19997;-78
2021/06/06 02:01:59;;;;;;;5.20;1.83;;;15.40;99.90;;;;;;6216093;23;20461;-78
2021/06/06 02:04:25;;;;;;;6.75;1.50;;;15.40;99.90;;;;;;6215987;23;19997;-78
2021/06/06 02:06:51;;;;;;;2.15;1.30;;;15.50;99.90;;;;;;6214220;23;19996;-78
2021/06/06 02:09:23;;;;;;;4.78;1.65;;;15.50;99.90;;;;;;6215899;23;20027;-78
2021/06/06 02:11:57;;;;;;;2.33;1.70;;;15.50;99.90;;;;;;6215798;23;20004;-78
2021/06/06 02:14:27;;;;;;;4.22;1.60;;;15.40;99.90;;;;;;6214666;23;20342;-78
2021/06/06 02:16:56;;;;;;;2.67;1.63;;;15.40;99.90;;;;;;6214435;23;20388;-78
2021/06/06 02:19:25;;;;;;;6.43;1.95;;;15.40;99.90;;;;;;6215347;23;19997;-78
2021/06/06 02:21:52;;;;;;;2.30;1.60;;;15.30;99.90;;;;;;6214275;23;20343;-78
2021/06/06 02:24:19;;;;;;;2.53;1.58;;;15.40;99.90;;;;;;6214969;23;19997;-78
2021/06/06 02:27:34;;;;;;;9.02;2.00;;;15.40;99.90;;;;;;6215835;23;20007;-78
2021/06/06 02:30:14;;;;;;;6.75;2.03;;;15.50;99.90;;;;;;6109312;23;19998;-78
2021/06/06 02:32:53;;;;;;;3.38;1.48;;;15.50;99.90;;;;;;6215954;23;20008;-78
2021/06/06 02:35:35;;;;;;;5.72;2.70;;;15.50;99.90;;;;;;6215612;23;19997;-78
2021/06/06 02:38:15;;;;;;;2.88;1.88;;;15.50;99.90;;;;;;6215789;23;20001;-78
2021/06/06 02:41:06;;;;;;;6.07;2.00;;;15.30;99.90;;;;;;6215471;23;20075;-78
2021/06/06 02:43:39;;;;;;;4.35;1.77;;;15.30;99.90;;;;;;6215400;23;20063;-78
2021/06/06 02:46:06;;;;;;;4.25;1.80;;;15.20;99.90;;;;;;6215363;23;20000;-78
2021/06/06 02:48:46;;;;;;;5.93;1.67;;;15.20;99.90;;;;;;6215639;23;20047;-78
2021/06/06 02:51:18;;;;;;;3.22;1.75;;;15.20;99.90;;;;;;6215469;23;20015;-78
2021/06/06 02:53:58;;;;;;;2.92;2.00;;;15.20;99.90;;;;;;6214963;23;20001;-78
2021/06/06 02:56:28;;;;;;;3.95;2.60;;;15.20;99.90;;;;;;6215477;23;19997;-78
2021/06/06 02:58:56;;;;;;;;;;;15.20;99.90;;;;;;6215783;23;20403;-78
2021/06/06 03:01:42;;;;;;;3.85;2.00;;;15.10;99.90;;;;;;6214942;23;19915;-78
2021/06/06 03:04:12;;;;;;;4.00;1.85;;;15.20;99.90;;;;;;6215605;23;19993;-78
2021/06/06 03:06:59;;;;;;;5.95;1.60;;;15.20;99.90;;;;;;6213866;23;20011;-78
2021/06/06 03:09:25;;;;;;;6.22;1.80;;;15.20;99.90;;;;;;6214750;23;20007;-78
2021/06/06 03:11:54;;;;;;;3.60;2.00;;;15.30;99.90;;;;;;6215480;23;20076;-78
2021/06/06 03:14:22;;;;;;;5.43;1.95;;;15.20;99.90;;;;;;6215074;23;20067;-78
2021/06/06 03:17:28;;;;;;;1.75;1.52;;;15.20;99.90;;;;;;6215456;23;20027;-78
2021/06/06 03:19:58;;;;;;;6.18;1.90;;;15.20;99.90;;;;;;6214400;23;20005;-78
2021/06/06 03:22:34;;;;;;;1.85;1.73;;;15.30;99.90;;;;;;6214589;23;20003;-78
2021/06/06 03:25:16;;;;;;;4.82;2.72;;;15.30;99.90;;;;;;6214587;23;20076;-78
2021/06/06 03:27:44;;;;;;;2.05;1.40;;;15.30;99.90;;;;;;6215083;23;20020;-78
2021/06/06 03:30:25;;;;;;;6.07;1.67;;;15.40;99.90;;;;;;6215257;23;19997;-78
2021/06/06 03:32:53;;;;;;;2.65;1.70;;;15.30;99.90;;;;;;6214787;23;20007;-78
2021/06/06 03:35:19;;;;;;;2.85;1.92;;;15.30;99.90;;;;;;6214372;23;20028;-78
2021/06/06 03:37:45;;;;;;;2.00;1.88;;;15.30;99.90;;;;;;6214510;23;19996;-78
2021/06/06 03:40:12;;;;;;;4.97;1.80;;;15.30;99.90;;;;;;6215166;23;20011;-78
2021/06/06 03:42:39;;;;;;;5.70;1.85;;;15.30;99.90;;;;;;6214961;23;20051;-78
2021/06/06 03:45:07;;;;;;;4.72;1.83;;;15.30;99.90;;;;;;6214725;23;20028;-78
2021/06/06 03:47:33;;;;;;;3.33;2.00;;;15.20;99.90;;;;;;6214906;23;20067;-78
2021/06/06 03:49:59;;;;;;;6.97;2.30;;;15.20;99.90;;;;;;6213470;23;20024;-78
2021/06/06 03:52:24;;;;;;;6.05;2.33;;;15.20;99.90;;;;;;6214717;23;20040;-78
2021/06/06 03:54:53;;;;;;;4.65;2.00;;;15.20;99.90;;;;;;6213922;23;20070;-78
2021/06/06 03:57:19;;;;;;;5.65;2.15;;;15.20;99.90;;;;;;6214902;23;20000;-78
2021/06/06 03:59:45;;;;;;;4.30;2.00;;;15.20;99.90;;;;;;6214854;23;20004;-78
2021/06/06 04:02:11;;;;;;;3.80;2.10;;;15.10;99.90;;;;;;6214758;23;20062;-78
2021/06/06 04:04:37;;;;;;;3.60;1.58;;;15.10;99.90;;;;;;6212709;23;20004;-78
2021/06/06 04:07:03;;;;;;;16.88;3.55;;;15.00;99.90;;;;;;6213737;23;19999;-78
2021/06/06 04:09:29;;;;;;;3.80;1.88;;;14.90;99.90;;;;;;6214847;23;19993;-78
2021/06/06 04:11:55;;;;;;;4.72;2.33;;;15.00;99.90;;;;;;6214733;23;19997;-78
2021/06/06 04:14:21;;;;;;;3.83;2.10;;;15.10;99.90;;;;;;6214987;23;20007;-78
2021/06/06 04:16:46;;;;;;;5.85;2.20;;;15.10;99.90;;;;;;6214721;23;19997;-78
2021/06/06 04:19:12;;;;;;;5.45;2.83;;;15.10;99.90;;;;;;6214308;23;20004;-78
2021/06/06 04:21:38;;;;;;;6.70;2.35;;;15.20;99.90;;;;;;6213982;23;20004;-78
2021/06/06 04:24:05;;;;;;;8.57;2.63;;;15.10;99.90;;;;;;6214361;23;20071;-78
2021/06/06 04:26:30;;;;;;;4.60;2.45;;;15.10;99.90;;;;;;6214825;23;19993;-78
2021/06/06 04:28:57;;;;;;;6.30;1.90;;;15.10;99.90;;;;;;6214828;23;20020;-78
2021/06/06 04:31:24;;;;;;;2.80;1.70;;;15.00;99.90;;;;;;6214917;23;19996;-79
2021/06/06 04:33:50;;;;;;;4.38;2.08;;;14.90;99.90;;;;;;6213892;23;20316;-78
2021/06/06 04:36:16;;;;;;;2.72;1.77;;;14.80;99.90;;;;;;6214401;23;19997;-78
2021/06/06 04:38:42;;;;;;;8.88;2.65;;;14.80;99.90;;;;;;6212441;23;20083;-78
2021/06/06 04:41:11;;;;;;;3.60;2.13;;;14.80;99.90;;;;;;6214808;23;20024;-78
2021/06/06 04:43:38;;;;;;;1.87;1.77;;;14.90;99.90;;;;;;6214561;23;20072;-78
2021/06/06 04:46:05;;;;;;;2.85;2.00;;;14.90;99.90;;;;;;6212484;23;20275;-78
2021/06/06 04:48:35;;;;;;;5.65;1.95;;;15.00;99.90;;;;;;6214497;23;20135;-78
2021/06/06 04:51:05;;;;;;;5.03;1.60;;;15.00;99.90;;;;;;6214106;23;20335;-78
2021/06/06 04:53:31;;;;;;;5.78;1.75;;;15.00;99.90;;;;;;6214035;23;20020;-78
2021/06/06 04:55:58;;;;;;;4.00;2.03;;;15.10;99.90;;;;;;6214346;23;20378;-78
2021/06/06 04:58:26;;;;;;;5.32;2.30;;;15.10;99.90;;;;;;6214433;23;19993;-78
2021/06/06 05:00:52;;;;;;;4.30;2.00;;;15.20;99.90;;;;;;6214497;23;20047;-78
2021/06/06 05:03:20;;;;;;;6.20;2.22;;;15.30;99.90;;;;;;6214641;23;20008;-78
2021/06/06 05:05:46;;;;;;;2.60;1.90;;;15.30;99.90;;;;;;6213593;23;20042;-78
2021/06/06 05:08:14;;;;;;;3.60;2.03;;;15.30;99.90;;;;;;6214071;23;20004;-78
2021/06/06 05:10:42;;;;;;;3.58;2.10;;;15.30;99.90;;;;;;6214269;23;20018;-78
2021/06/06 05:13:08;;;;;;;4.05;2.15;;;15.30;99.90;;;;;;6212579;23;20011;-78
2021/06/06 05:15:35;;;;;;;5.05;2.10;;;15.30;99.90;;;;;;6216304;23;20001;-78
2021/06/06 05:18:00;;;;;;;6.32;2.15;;;15.40;99.90;;;;;;6216406;23;19997;-78
2021/06/06 05:20:30;;;;;;;3.22;1.85;;;15.40;99.90;;;;;;6215393;23;20004;-78
2021/06/06 05:22:56;;;;;;;5.45;2.53;;;15.40;99.90;;;;;;6215966;23;20075;-78
2021/06/06 05:25:22;;;;;;;3.92;1.88;;;15.40;99.90;;;;;;6216221;23;20024;-78
2021/06/06 05:27:48;;;;;;;2.53;2.22;;;15.50;99.90;;;;;;6216327;23;20000;-78
2021/06/06 05:30:21;;;;;;;4.00;2.03;;;15.60;99.90;;;;;;6216606;23;20447;-78
2021/06/06 05:32:50;;;;;;;4.80;2.35;;;15.60;99.90;;;;;;6215787;23;20006;-78
2021/06/06 05:35:16;;;;;;;2.47;1.77;;;15.70;99.90;;;;;;6216298;23;20020;-78
2021/06/06 05:37:42;;;;;;;3.83;1.77;;;15.70;99.90;;;;;;6214654;23;20001;-78
2021/06/06 05:40:08;;;;;;;3.70;1.95;;;15.80;99.90;;;;;;6216074;23;19997;-78
2021/06/06 05:42:34;;;;;;;3.42;2.17;;;15.80;99.90;;;;;;6216357;23;20072;-78
2021/06/06 05:45:00;;;;;;;2.38;2.15;;;15.80;99.90;;;;;;6214352;23;20078;-78
2021/06/06 05:47:26;;;;;;;5.95;2.10;;;16.00;99.90;;;;;;6215764;23;20001;-78
2021/06/06 05:49:51;;;;;;;5.65;1.90;;;16.00;99.90;;;;;;6215893;23;20020;-78
2021/06/06 05:52:17;;;;;;;3.20;1.98;;;16.10;99.90;;;;;;6216360;23;20055;-78
2021/06/06 05:54:43;;;;;;;5.57;2.10;;;16.10;99.90;;;;;;6215619;23;19997;-78
2021/06/06 05:57:09;;;;;;;3.38;1.80;;;16.10;99.90;;;;;;6216197;23;19997;-78
2021/06/06 05:59:35;;;;;;;3.90;2.42;;;16.10;99.90;;;;;;6215874;23;20008;-78
2021/06/06 06:02:01;;;;;;;8.82;2.08;;;16.10;99.90;;;;;;6215298;23;20458;-78
2021/06/06 06:04:26;;;;;;;1.90;1.63;;;16.10;99.90;;;;;;6215735;23;20330;-78
2021/06/06 06:06:52;;;;;;;4.35;1.98;;;16.10;99.90;;;;;;6213363;23;20465;-78
2021/06/06 06:09:18;;;;;;;5.68;2.10;;;16.10;99.90;;;;;;6214879;23;19996;-78
2021/06/06 06:11:44;;;;;;;4.18;1.88;;;16.10;99.90;;;;;;6216144;23;20001;-78
2021/06/06 06:14:09;;;;;;;2.65;1.65;;;16.10;99.90;;;;;;6215647;23;20031;-78
2021/06/06 06:16:37;;;;;;;5.60;1.67;;;16.10;99.90;;;;;;6215822;23;20004;-78
2021/06/06 06:19:05;;;;;;;1.70;1.60;;;16.20;99.90;;;;;;6216106;23;20435;-78
2021/06/06 06:21:33;;;;;;;2.75;1.80;;;16.30;99.90;;;;;;6215931;23;20506;-78
2021/06/06 06:23:59;;;;;;;2.22;1.95;;;16.40;99.90;;;;;;6215114;23;19993;-78
2021/06/06 06:26:25;;;;;;;3.03;1.90;;;16.60;99.90;;;;;;6215361;23;20004;-78
2021/06/06 06:28:51;;;;;;;2.45;2.03;;;16.70;99.90;;;;;;6215738;23;20402;-78
2021/06/06 06:31:18;;;;;;;3.28;1.92;;;16.70;99.90;;;;;;6212588;23;20001;-78
2021/06/06 06:33:45;;;;;;;3.70;2.10;;;16.70;99.90;;;;;;6213982;23;19996;-78
2021/06/06 06:36:18;;;;;;;2.67;1.67;;;16.80;99.90;;;;;;6214106;23;20003;-78
2021/06/06 06:38:50;;;;;;;4.95;2.40;;;17.00;99.90;;;;;;6214433;23;19993;-78
2021/06/06 06:41:30;;;;;;;1.67;1.58;;;17.20;99.90;;;;;;6212120;23;20001;-78
2021/06/06 06:43:58;;;;;;;;;;;17.50;99.90;;;;;;6214814;23;19997;-78
2021/06/06 06:46:27;;;;;;;2.13;1.63;;;17.60;99.90;;;;;;6214308;23;20309;-78
2021/06/06 06:48:57;;;;;;;2.00;1.58;;;17.70;99.90;;;;;;6214220;23;19996;-78
2021/06/06 06:51:27;;;;;;;6.15;2.55;;;17.90;99.90;;;;;;6214336;23;20035;-78
2021/06/06 06:53:56;;;;;;;4.18;2.45;;;17.90;99.90;;;;;;6214734;23;20001;-78
2021/06/06 06:56:26;;;;;;;4.90;2.13;;;17.90;99.90;;;;;;6213183;23;20315;-78
2021/06/06 06:58:55;;;;;;;;;;;18.00;99.90;;;;;;6214494;23;20064;-78
2021/06/06 07:01:24;;;;;;;5.80;2.83;;;18.10;99.90;;;;;;6213407;23;19908;-78
2021/06/06 07:03:52;;;;;;;5.07;1.57;;;18.00;99.90;;;;;;6214163;23;20107;-78
2021/06/06 07:06:20;;;;;;;3.08;1.23;;;18.10;99.90;;;;;;6212048;23;20686;-78
2021/06/06 07:08:49;;;;;;;3.00;1.63;;;18.20;99.90;;;;;;6213884;23;19992;-78
2021/06/06 07:11:18;;;;;;;5.20;1.38;;;18.10;99.90;;;;;;6213834;23;19996;-78
2021/06/06 07:13:45;;;;;;;2.00;1.48;;;18.20;99.90;;;;;;6213983;23;20004;-78
2021/06/06 07:16:12;;;;;;;2.53;1.30;;;18.20;99.90;;;;;;6213630;23;20063;-78
2021/06/06 07:18:39;;;;;;;5.82;1.52;;;18.30;99.90;;;;;;6213927;23;19997;-78
2021/06/06 07:21:12;;;;;;;3.10;1.50;;;18.40;99.90;;;;;;6214802;23;20024;-78
2021/06/06 07:23:38;;;;;;;2.10;1.17;;;18.50;99.90;;;;;;6215408;23;20120;-78
2021/06/06 07:26:18;;;;;;;3.30;1.60;;;18.40;99.90;;;;;;6213878;23;20072;-78
2021/06/06 07:28:49;;;;;;;4.65;1.65;;;18.40;99.90;;;;;;6213581;23;20004;-78
2021/06/06 07:31:16;;;;;;;4.78;1.63;;;18.50;99.90;;;;;;6213874;23;20367;-78
2021/06/06 07:33:43;;;;;;;4.97;1.60;;;18.30;99.90;;;;;;6213581;23;20092;-78
2021/06/06 07:36:16;;;;;;;2.95;1.50;;;18.50;99.90;;;;;;6215048;23;20020;-78
2021/06/06 07:38:42;;;;;;;4.97;2.58;;;18.60;99.90;;;;;;6214183;23;20000;-78
2021/06/06 07:41:08;;;;;;;5.70;1.77;;;19.10;99.90;;;;;;6214655;23;20019;-78
2021/06/06 07:43:34;;;;;;;4.43;2.17;;;19.00;99.90;;;;;;6213937;23;20338;-78
2021/06/06 07:46:02;;;;;;;2.90;2.08;;;19.00;99.90;;;;;;6214976;23;19999;-78
2021/06/06 07:48:28;;;;;;;3.30;1.75;;;19.30;99.90;;;;;;6214616;23;20003;-78
2021/06/06 07:50:54;;;;;;;14.65;2.90;;;19.00;99.90;;;;;;6214564;23;20684;-78
2021/06/06 07:53:21;;;;;;;2.85;1.80;;;19.20;99.90;;;;;;6214199;23;20008;-78
2021/06/06 07:55:52;;;;;;;2.58;1.70;;;19.30;99.90;;;;;;6214671;23;20000;-78
2021/06/06 07:58:23;;;;;;;6.32;1.55;;;19.50;99.90;;;;;;6214456;23;20115;-78
2021/06/06 08:00:49;;;;;;;3.38;1.92;;;20.00;99.90;;;;;;6214850;23;19997;-78
2021/06/06 08:03:15;;;;;;;1.67;1.15;;;20.00;99.90;;;;;;6212328;23;20012;-78
2021/06/06 08:05:42;;;;;;;7.28;1.55;;;20.20;99.90;;;;;;6214934;23;20469;-78
2021/06/06 08:08:10;;;;;;;3.53;1.70;;;20.30;99.90;;;;;;6214736;23;20373;-78
2021/06/06 08:10:39;;;;;;;2.88;1.40;;;19.80;99.90;;;;;;6214187;23;19997;-78
2021/06/06 08:13:05;;;;;;;8.77;1.95;;;20.20;99.90;;;;;;6213327;23;20474;-78
2021/06/06 08:15:32;;;;;;;3.85;1.77;;;20.60;99.90;;;;;;6212923;23;20286;-78
2021/06/06 08:17:59;;;;;;;2.60;1.60;;;21.00;99.90;;;;;;6213105;23;20000;-77
2021/06/06 08:20:32;;;;;;;3.20;2.22;;;21.00;99.90;;;;;;6213723;23;20008;-77
2021/06/06 08:22:58;;;;;;;5.03;2.20;;;20.80;99.90;;;;;;6215039;23;19996;-77
2021/06/06 08:25:25;;;;;;;2.22;1.42;;;20.40;99.90;;;;;;6212724;23;20071;-78
2021/06/06 08:27:52;;;;;;;3.45;1.88;;;20.80;99.90;;;;;;6213920;23;20074;-78
2021/06/06 08:30:29;;;;;;;2.85;1.30;;;20.80;99.90;;;;;;6214995;23;19993;-78
2021/06/06 08:32:54;;;;;;;3.13;1.38;;;20.70;99.90;;;;;;6214565;23;20024;-78
2021/06/06 08:35:20;;;;;;;1.30;1.20;;;20.50;99.90;;;;;;6214664;23;20004;-78
2021/06/06 08:37:46;;;;;;;2.85;1.33;;;20.50;99.90;;;;;;6214653;23;20443;-78
2021/06/06 08:40:29;;;;;;;2.40;1.80;;;20.30;99.90;;;;;;6214732;23;20338;-78
2021/06/06 08:42:56;;;;;;;5.13;1.42;;;20.20;99.90;;;;;;6214250;23;20000;-78
2021/06/06 08:45:36;;;;;;;4.00;1.60;;;20.60;99.90;;;;;;6214714;23;20004;-78
2021/06/06 08:48:06;;;;;;;4.95;1.40;;;20.40;99.90;;;;;;6214676;23;20044;-77
2021/06/06 08:50:37;;;;;;;3.30;1.30;;;20.60;99.90;;;;;;6214476;23;20004;-78
2021/06/06 08:53:15;;;;;;;1.90;1.13;;;20.90;99.90;;;;;;6214681;23;20047;-77
2021/06/06 08:56:16;;;;;;;1.45;1.30;;;20.80;99.90;;;;;;6214354;23;19996;-78
2021/06/06 08:59:22;;;;;;;3.35;1.65;;;21.00;99.90;;;;;;6214573;23;20001;-78
2021/06/06 09:02:01;;;;;;;2.63;1.30;;;21.10;99.90;;;;;;6214350;23;20028;-78
2021/06/06 09:04:30;;;;;;;1.23;1.00;;;21.10;99.90;;;;;;6214821;23;20000;-78
2021/06/06 09:07:21;;;;;;;2.78;1.27;;;20.80;99.90;;;;;;6214566;23;20000;-77
2021/06/06 09:09:50;;;;;;;2.33;1.40;;;21.30;99.90;;;;;;6198557;23;20051;-78
2021/06/06 09:12:21;;;;;;;1.50;1.40;;;21.50;99.90;;;;;;6214001;23;20000;-78
2021/06/06 09:14:49;;;;;;;2.88;1.67;;;20.80;99.90;;;;;;6214442;23;20028;-77
2021/06/06 09:17:17;;;;;;;3.15;1.20;;;20.40;99.90;;;;;;6214697;23;20062;-78
2021/06/06 09:19:45;;;;;;;1.90;1.10;;;20.50;99.90;;;;;;6214541;23;20344;-78
2021/06/06 09:22:13;;;;;;;1.63;1.30;;;20.80;99.90;;;;;;6214269;23;20025;-78
2021/06/06 09:24:47;;;;;;;1.80;1.40;;;21.10;99.90;;;;;;6214009;23;20001;-78
2021/06/06 09:27:14;;;;;;;2.05;1.55;;;21.20;99.90;;;;;;6214662;23;20022;-78
2021/06/06 09:29:41;;;;;;;3.28;1.15;;;20.70;99.90;;;;;;6212923;23;20001;-78
2021/06/06 09:32:12;;;;;;;2.20;1.35;;;20.90;99.90;;;;;;6214254;23;20035;-78
2021/06/06 09:34:49;;;;;;;1.48;1.10;;;21.20;99.90;;;;;;6214558;23;20005;-78
2021/06/06 09:37:18;;;;;;;5.10;1.42;;;22.00;99.90;;;;;;6214516;23;20378;-78
2021/06/06 09:39:51;;;;;;;1.20;1.02;;;22.40;99.90;;;;;;6214086;23;20381;-78
2021/06/06 09:42:34;;;;;;;4.13;1.55;;;21.60;99.90;;;;;;6212766;23;20024;-78
2021/06/06 09:45:09;;;;;;;2.35;1.48;;;21.60;99.90;;;;;;6214249;23;19997;-78
2021/06/06 09:47:35;;;;;;;2.15;1.38;;;22.40;99.90;;;;;;6212784;23;20104;-78
2021/06/06 09:50:17;;;;;;;1.55;1.10;;;23.50;99.90;;;;;;6214229;23;20450;-78
2021/06/06 09:52:46;;;;;;;4.85;1.10;;;23.00;99.90;;;;;;6214369;23;20009;-78
2021/06/06 09:55:23;;;;;;;6.85;1.17;;;22.60;99.90;;;;;;6214318;23;19996;-78
2021/06/06 09:57:52;;;;;;;2.47;1.40;;;21.60;99.90;;;;;;6214409;23;20004;-78
2021/06/06 10:00:22;;;;;;;2.05;1.40;;;21.70;99.90;;;;;;6217862;23;20464;-78
2021/06/06 10:03:02;;;;;;;1.63;1.27;;;22.40;99.90;;;;;;6215915;23;20008;-78
2021/06/06 10:05:29;;;;;;;2.67;1.42;;;22.00;99.90;;;;;;6216147;23;20395;-78
2021/06/06 10:08:00;;;;;;;1.85;1.20;;;22.60;99.90;;;;;;6216019;23;20000;-78
2021/06/06 10:10:30;;;;;;;3.00;1.20;;;22.70;99.90;;;;;;6215879;23;20038;-78
2021/06/06 10:12:59;;;;;;;1.50;1.10;;;23.60;99.90;;;;;;6216023;23;20335;-78
2021/06/06 10:15:36;;;;;;;1.10;1.10;;;23.70;99.90;;;;;;6215842;23;20079;-78
2021/06/06 10:18:11;;;;;;;5.10;1.35;;;22.30;99.90;;;;;;6215820;23;20000;-78
2021/06/06 10:20:41;;;;;;;4.15;1.27;;;22.30;99.90;;;;;;6216103;23;20001;-78
2021/06/06 10:23:30;;;;;;;1.60;1.50;;;22.30;99.90;;;;;;6215467;23;20044;-77
2021/06/06 10:26:17;;;;;;;1.83;1.63;;;22.50;99.90;;;;;;6215873;23;20072;-78
2021/06/06 10:28:50;;;;;;;2.35;1.27;;;23.30;99.90;;;;;;6215840;23;20025;-78
2021/06/06 10:31:35;;;;;;;1.75;1.65;;;24.80;99.90;;;;;;6215969;23;19993;-78
2021/06/06 10:34:12;;;;;;;3.35;1.77;;;23.20;99.90;;;;;;6215807;23;20064;-77
2021/06/06 10:36:40;;;;;;;2.88;1.60;;;23.30;99.90;;;;;;6215740;23;20389;-78
2021/06/06 10:39:08;;;;;;;2.33;1.55;;;24.00;99.90;;;;;;6215354;23;20001;-78
2021/06/06 10:41:48;;;;;;;2.33;1.35;;;23.30;99.90;;;;;;6215642;23;20001;-78
2021/06/06 10:44:36;;;;;;;2.53;1.48;;;22.20;99.90;;;;;;6215467;23;19996;-78
2021/06/06 10:47:16;;;;;;;1.55;1.40;;;24.10;99.90;;;;;;6215537;23;19993;-78
2021/06/06 10:49:57;;;;;;;6.30;1.50;;;26.10;99.80;;;;;;6215839;23;19996;-78
2021/06/06 10:52:25;;;;;;;2.35;1.20;;;25.80;97.60;;;;;;6215144;23;20013;-78
2021/06/06 10:54:56;;;;;;;3.05;1.52;;;25.10;98.20;;;;;;6215563;23;20000;-78
2021/06/06 10:57:25;;;;;;;3.85;1.92;;;25.30;98.60;;;;;;6215590;23;20001;-78
2021/06/06 11:00:02;;;;;;;2.75;1.42;;;28.10;95.80;;;;;;6215641;23;20457;-78
2021/06/06 11:02:32;;;;;;;3.83;2.17;;;28.90;91.90;;;;;;6215457;23;20055;-78
2021/06/06 11:05:03;;;;;;;1.95;1.60;;;26.00;93.10;;;;;;6215515;23;19996;-78
2021/06/06 11:07:36;;;;;;;2.42;1.35;;;25.90;90.50;;;;;;6215266;23;20427;-78
2021/06/06 11:10:20;;;;;;;3.10;1.63;;;24.80;97.70;;;;;;6215516;23;19993;-78
2021/06/06 11:12:49;;;;;;;2.90;1.50;;;23.30;99.90;;;;;;6215196;23;19996;-78
2021/06/06 11:15:42;;;;;;;2.17;1.52;;;22.90;99.90;;;;;;6215238;23;20000;-78
2021/06/06 11:18:21;;;;;;;2.47;1.75;;;23.20;99.90;;;;;;6215466;23;20008;-78
2021/06/06 11:20:52;;;;;;;1.85;1.60;;;26.90;98.30;;;;;;6215245;23;20004;-78
2021/06/06 11:23:39;;;;;;;2.33;1.90;;;27.60;92.40;;;;;;6215290;23;20464;-78
2021/06/06 11:26:22;;;;;;;1.65;1.55;;;28.40;87.60;;;;;;6214194;23;20031;-78
2021/06/06 11:28:50;;;;;;;2.30;1.85;;;30.60;91.50;;;;;;6215381;23;19993;-78
2021/06/06 11:31:26;;;;;;;3.28;1.60;;;31.30;88.10;;;;;;6214228;23;20115;-78
2021/06/06 11:34:05;;;;;;;2.53;1.65;;;32.60;72.00;;;;;;6215570;23;20442;-78
2021/06/06 11:36:41;;;;;;;2.72;1.60;;;30.60;82.50;;;;;;6213835;23;20327;-78
2021/06/06 11:39:18;;;;;;;1.67;1.58;;;33.40;80.60;;;;;;6214881;23;19997;-78
2021/06/06 11:41:46;;;;;;;2.60;1.50;;;34.10;68.90;;;;;;6214853;23;20001;-78
2021/06/06 11:44:22;;;;;;;4.80;1.77;;;32.90;69.10;;;;;;6214487;23;19997;-78
2021/06/06 11:46:52;;;;;;;1.85;1.75;;;33.10;70.60;;;;;;6214696;23;20067;-78
2021/06/06 11:49:34;;;;;;;2.00;1.35;;;34.60;61.20;;;;;;6215002;23;20468;-78
2021/06/06 11:52:36;;;;;;;3.42;1.73;;;33.20;64.70;;;;;;6212063;23;20063;-79
2021/06/06 11:55:09;;;;;;;1.90;1.80;;;33.70;67.10;;;;;;6216487;23;20020;-78
2021/06/06 11:57:42;;;;;;;3.33;2.25;;;34.00;63.50;;;;;;6214650;23;19997;-78
2021/06/06 12:00:20;;;;;;;9.18;2.08;;;33.30;69.60;;;;;;6214861;23;20377;-78
2021/06/06 12:02:46;;;;;;;1.73;1.63;;;33.90;66.90;;;;;;6214325;23;20077;-78
2021/06/06 12:05:14;;;;;;;2.50;2.30;;;35.30;64.30;;;;;;6214099;23;19996;-78
2021/06/06 12:07:44;;;;;;;3.63;2.47;;;36.50;65.30;;;;;;6215151;23;19993;-78
2021/06/06 12:10:31;;;;;;;5.25;3.10;;;36.70;57.80;;;;;;6212780;23;20005;-78
2021/06/06 12:12:59;;;;;;;2.80;2.45;;;37.30;58.50;;;;;;6214641;23;20028;-77
2021/06/06 12:15:41;;;;;;;2.42;1.88;;;37.80;57.20;;;;;;6213245;23;20009;-77
2021/06/06 12:18:21;;;;;;;2.10;2.00;;;35.40;53.10;;;;;;6214551;23;20000;-77
2021/06/06 12:20:50;;;;;;;1.90;1.80;;;34.10;53.10;;;;;;6214195;23;20001;-77
2021/06/06 12:23:16;;;;;;;1.80;1.70;;;33.30;57.80;;;;;;6214372;23;20091;-77
2021/06/06 12:25:42;;;;;;;2.30;1.48;;;32.20;59.70;;;;;;6214859;23;20020;-78
2021/06/06 12:28:18;;;;;;;1.60;1.50;;;28.70;69.80;;;;;;6214900;23;20004;-78
2021/06/06 12:30:47;;;;;;;2.38;1.40;;;26.50;75.70;;;;;;6218265;23;19997;-78
2021/06/06 12:33:38;;;;;;;6.65;1.90;;;26.10;81.40;;;;;;6213899;23;20057;-78
2021/06/06 12:36:12;;;;;;;2.10;1.88;;;25.50;83.20;;;;;;6214421;23;20001;-78
2021/06/06 12:38:39;;;;;;;22.63;15.35;;;26.00;87.20;;;;;;6214013;23;20079;-78
2021/06/06 12:41:07;;;;;;;348.88;240.50;;;26.40;88.90;;;;;;6214739;23;20185;-78
2021/06/06 12:43:35;;;;;;;29.20;19.48;;;26.90;88.90;;;;;;6212864;23;20007;-78
2021/06/06 12:46:07;;;;;;;12.45;8.90;;;28.10;82.60;;;;;;6214558;23;19993;-78
2021/06/06 12:48:56;;;;;;;16.50;11.68;;;29.50;77.30;;;;;;6214129;23;20024;-78
2021/06/06 12:51:28;;;;;;;5.97;4.28;;;31.70;75.20;;;;;;6213781;23;20013;-78
2021/06/06 12:54:20;;;;;;;3.03;2.22;;;34.00;67.40;;;;;;6214367;23;19993;-78
2021/06/06 12:56:48;;;;;;;3.58;2.13;;;35.20;63.50;;;;;;6212643;23;20032;-78
2021/06/06 12:59:23;;;;;;;2.10;2.00;;;37.00;60.80;;;;;;6204215;23;20007;-79
2021/06/06 13:02:01;;;;;;;2.40;2.20;;;38.00;59.40;;;;;;6211882;23;20011;-79
2021/06/06 13:04:27;;;;;;;5.53;2.20;;;38.50;57.70;;;;;;6212864;23;20315;-78
2021/06/06 13:06:54;;;;;;;3.38;2.53;;;39.30;54.30;;;;;;6211201;23;20007;-78
2021/06/06 13:09:29;;;;;;;2.05;1.77;;;38.50;53.20;;;;;;6211155;23;20342;-78